Latest Weather Observations for Moruya Airport

IDN60901

Issued at 5:55 am EDT Friday 31 October 2014 (issued every 10 minutes, with the page automatically refreshed every 10 minutes)

About weather observations | Map of Canberra area stations | Latest observations for Canberra area | Other Formats
Station Details ID: 069148 Name: MORUYA AIRPORT AWS Lat: -35.90 Lon: 150.14 Height: 4.0 m
Data from the previous 72 hours. | See also: Recent months for locations in Aust Capital Territory
Date/Time
EDT
Tmp

°C
App
Tmp
°C
Dew
Point
°C
Rel
Hum
%
Delta-T

°C
Wind Press
QNH
hPa
Press
MSL
hPa
Rain
since
9 am
mm
Dir
 
Spd
km/h
Gust
km/h
Spd
kts
Gust
kts
31/05:30am 12.4 13.2 12.4 100 0.0 CALM 0 0 0 0 1012.5 1012.4 0.0
31/05:14am 11.6 12.1 11.6 100 0.0 WSW 0 0 0 0 1012.5 1012.4 0.0
31/05:00am 12.0 12.6 12.0 100 0.0 CALM 0 4 0 2 1012.4 1012.3 0.0
31/04:59am 12.0 12.6 12.0 100 0.0 CALM 0 6 0 3 1012.4 1012.3 0.0
31/04:41am 12.0 12.2 12.0 100 0.0 W 2 6 1 3 1012.4 1012.3 0.0
31/04:30am 12.3 12.3 12.3 100 0.0 W 4 6 2 3 1012.5 1012.4 0.0
31/04:00am 13.1 14.1 13.1 100 0.0 CALM 0 0 0 0 1012.6 1012.5 0.0
31/03:30am 13.7 14.5 13.7 100 0.0 W 2 6 1 3 1012.9 1012.8 0.0
31/03:00am 14.0 15.3 14.0 100 0.0 CALM 0 6 0 3 1013.1 1013.0 0.0
31/02:30am 14.1 15.4 14.1 100 0.0 CALM 0 0 0 0 1013.4 1013.3 0.0
31/02:00am 14.4 15.8 14.4 100 0.0 CALM 0 4 0 2 1013.7 1013.6 0.0
31/01:30am 14.7 15.1 14.7 100 0.0 W 6 9 3 5 1014.2 1014.1 0.0
31/01:00am 14.5 14.6 14.5 100 0.0 WNW 7 11 4 6 1014.6 1014.5 0.0
31/12:30am 14.6 14.8 14.6 100 0.0 W 7 9 4 5 1014.8 1014.7 0.0
31/12:00am 15.8 16.4 15.8 100 0.0 WSW 7 11 4 6 1014.9 1014.8 0.0
 
Date/Time
EDT
Tmp

°C
App
Tmp
°C
Dew
Point
°C
Rel
Hum
%
Delta-T

°C
Wind Press
QNH
hPa
Press
MSL
hPa
Rain
since
9 am
mm
Dir
 
Spd
km/h
Gust
km/h
Spd
kts
Gust
kts
30/11:30pm 16.5 17.3 16.3 99 0.1 WSW 7 11 4 6 1015.0 1014.9 0.0
30/11:09pm 17.0 17.6 16.7 98 0.2 WSW 9 13 5 7 1015.1 1015.0 0.0
30/11:00pm 17.3 18.4 17.0 98 0.2 W 7 11 4 6 1015.1 1015.0 0.0
30/10:53pm 17.4 18.5 17.1 98 0.2 WSW 7 11 4 6 1015.2 1015.1 0.0
30/10:30pm 17.4 18.1 17.1 98 0.2 SW 9 15 5 8 1015.2 1015.1 0.0
30/10:00pm 17.6 18.0 17.3 98 0.2 S 11 15 6 8 1015.1 1015.0 0.0
30/09:30pm 17.9 17.7 17.7 99 0.1 S 15 20 8 11 1015.0 1014.9 0.0
30/09:00pm 18.0 18.0 18.0 100 0.0 S 15 17 8 9 1014.5 1014.4 0.0
30/08:30pm 18.2 18.5 17.9 98 0.2 S 13 15 7 8 1014.0 1013.9 0.0
30/08:00pm 18.0 18.1 17.4 96 0.4 S 13 17 7 9 1013.6 1013.5 0.0
30/07:30pm 18.7 19.4 16.1 85 1.5 ESE 7 9 4 5 1012.9 1012.8 0.0
30/07:29pm 18.7 19.4 16.1 85 1.5 ESE 7 9 4 5 1012.9 1012.8 0.0
30/07:18pm 19.1 19.6 16.5 85 1.6 E 9 9 5 5 1012.7 1012.6 0.0
30/07:13pm 19.2 19.6 16.4 84 1.7 E 9 9 5 5 1012.6 1012.5 0.0
30/07:02pm 19.7 20.6 16.5 82 1.9 ENE 7 9 4 5 1012.4 1012.3 0.0
30/07:00pm 19.7 20.6 16.5 82 1.9 ENE 7 13 4 7 1012.4 1012.3 0.0
30/06:30pm 20.4 21.2 17.2 82 2.0 ENE 9 11 5 6 1011.8 1011.7 0.0
30/06:00pm 20.7 21.4 17.1 80 2.2 ENE 9 11 5 6 1011.6 1011.5 0.0
30/05:30pm 20.7 21.3 16.9 79 2.3 NNE 9 11 5 6 1011.4 1011.3 0.0
30/05:00pm 20.9 21.6 17.1 79 2.3 NE 9 13 5 7 1011.1 1011.0 0.0
30/04:30pm 20.7 21.1 17.3 81 2.1 ENE 11 15 6 8 1011.0 1010.9 0.0
30/04:00pm 21.1 21.3 17.7 81 2.1 ENE 13 15 7 8 1010.9 1010.8 0.0
30/03:30pm 21.0 21.1 17.4 80 2.2 ENE 13 17 7 9 1010.9 1010.8 0.0
30/03:00pm 21.3 20.2 17.3 78 2.5 NE 19 20 10 11 1010.9 1010.8 0.0
30/02:30pm 20.9 19.4 16.3 75 2.8 NE 19 22 10 12 1011.3 1011.2 0.0
30/02:00pm 20.9 19.5 16.5 76 2.7 NE 19 22 10 12 1011.7 1011.6 0.0
30/01:30pm 20.6 19.2 16.6 78 2.4 ENE 19 20 10 11 1012.1 1012.0 0.0
30/01:00pm 21.1 20.1 16.5 75 2.8 ENE 17 20 9 11 1012.4 1012.3 0.0
30/12:30pm 19.8 18.4 14.4 71 3.1 NE 15 17 8 9 1012.8 1012.7 0.0
30/12:00pm 19.5 18.5 15.6 78 2.3 ENE 15 17 8 9 1013.4 1013.3 0.0
30/11:30am 19.9 19.3 15.7 77 2.5 ENE 13 17 7 9 1013.5 1013.4 0.0
30/11:00am 19.2 19.0 15.7 80 2.1 ENE 11 13 6 7 1013.8 1013.7 0.0
30/10:30am 19.5 19.3 15.6 78 2.3 E 11 15 6 8 1013.9 1013.8 0.0
30/10:00am 19.3 19.7 15.2 77 2.4 ESE 7 11 4 6 1014.3 1014.2 0.0
30/09:30am 17.9 17.8 13.8 77 2.3 SSW 7 11 4 6 1014.4 1014.3 0.0
30/09:00am 16.2 15.5 14.4 89 1.0 SW 11 13 6 7 1014.4 1014.3 0.0
30/08:30am 14.7 14.5 14.7 100 0.0 SW 9 13 5 7 1014.6 1014.5 0.0
30/08:00am 14.5 14.8 14.5 100 0.0 WSW 6 9 3 5 1014.5 1014.4 0.0
30/07:30am 13.0 12.8 13.0 100 0.0 SW 6 9 3 5 1014.4 1014.3 0.0
30/07:00am 11.6 11.0 11.6 100 0.0 WSW 6 9 3 5 1014.3 1014.2 0.0
30/06:50am 11.2 11.6 11.2 100 0.0 CALM 0 6 0 3 1014.3 1014.2 0.0
30/06:30am 10.8 10.7 10.8 100 0.0 WNW 2 6 1 3 1014.2 1014.1 0.0
30/06:23am 10.7 10.2 10.7 100 0.0 WNW 4 7 2 4 1014.1 1014.0 0.0
30/06:16am 10.8 9.9 10.8 100 0.0 W 6 7 3 4 1014.1 1014.0 0.0
30/06:00am 10.8 11.1 10.8 100 0.0 CALM 0 4 0 2 1013.9 1013.8 0.0
30/05:30am 11.2 10.4 11.2 100 0.0 WSW 6 13 3 7 1013.7 1013.6 0.0
30/05:00am 10.4 10.6 10.4 100 0.0 CALM 0 6 0 3 1013.7 1013.6 0.0
30/04:30am 10.7 10.6 10.7 100 0.0 W 2 6 1 3 1013.8 1013.7 0.0
30/04:00am 11.4 10.7 11.4 100 0.0 WSW 6 11 3 6 1014.0 1013.9 0.0
30/03:30am 10.7 10.9 10.7 100 0.0 CALM 0 6 0 3 1014.0 1013.9 0.0
30/03:00am 11.3 10.6 11.3 100 0.0 WNW 6 7 3 4 1014.1 1014.0 0.0
30/02:30am 11.5 12.0 11.5 100 0.0 CALM 0 0 0 0 1014.3 1014.2 0.0
30/02:00am 12.2 12.9 12.2 100 0.0 CALM 0 0 0 0 1014.6 1014.5 0.0
30/01:30am 12.7 13.2 12.7 100 0.0 W 2 7 1 4 1015.1 1015.0 0.0
30/01:00am 13.3 14.3 13.3 100 0.0 CALM 0 0 0 0 1015.4 1015.4 0.0
30/12:30am 13.7 14.9 13.7 100 0.0 CALM 0 0 0 0 1015.7 1015.7 0.0
30/12:00am 14.5 15.9 14.5 100 0.0 CALM 0 0 0 0 1016.0 1016.0 0.0
 
Date/Time
EDT
Tmp

°C
App
Tmp
°C
Dew
Point
°C
Rel
Hum
%
Delta-T

°C
Wind Press
QNH
hPa
Press
MSL
hPa
Rain
since
9 am
mm
Dir
 
Spd
km/h
Gust
km/h
Spd
kts
Gust
kts
29/11:56pm 14.6 16.1 14.6 100 0.0 CALM 0 0 0 0 1016.1 1016.1 0.0
29/11:36pm 15.0 16.6 15.0 100 0.0 CALM 0 0 0 0 1016.2 1016.2 0.0
29/11:30pm 15.1 16.8 15.1 100 0.0 CALM 0 0 0 0 1016.2 1016.2 0.0
29/11:14pm 15.2 16.9 15.2 100 0.0 CALM 0 0 0 0 1016.4 1016.4 0.0
29/11:00pm 15.3 17.0 15.3 100 0.0 CALM 0 0 0 0 1016.4 1016.4 0.0
29/10:30pm 15.3 17.0 15.3 100 0.0 CALM 0 6 0 3 1016.6 1016.6 0.0
29/10:00pm 15.3 15.9 15.3 100 0.0 W 6 7 3 4 1016.7 1016.7 0.0
29/09:59pm 15.3 15.9 15.3 100 0.0 W 6 7 3 4 1016.7 1016.7 0.0
29/09:43pm 15.3 15.9 15.3 100 0.0 W 6 7 3 4 1016.8 1016.8 0.0
29/09:39pm 15.3 15.9 15.3 100 0.0 W 6 7 3 4 1016.8 1016.8 0.0
29/09:30pm 15.3 16.7 15.3 100 0.0 WNW 2 7 1 4 1016.8 1016.8 0.0
29/09:00pm 15.5 17.2 15.3 99 0.1 CALM 0 0 0 0 1016.8 1016.8 0.0
29/08:30pm 15.7 15.7 15.1 96 0.3 N 9 13 5 7 1016.7 1016.7 0.0
29/08:24pm 15.9 15.4 14.9 94 0.6 N 11 15 6 8 1016.6 1016.6 0.0
29/08:00pm 16.6 15.1 14.2 86 1.4 NE 15 17 8 9 1016.5 1016.5 0.0
29/07:30pm 17.2 15.9 13.7 80 2.0 NE 13 20 7 11 1016.3 1016.3 0.0
29/07:00pm 16.9 14.7 12.0 73 2.7 E 15 17 8 9 1016.0 1016.0 0.0
29/06:30pm 17.1 14.7 12.6 75 2.5 ENE 17 20 9 11 1015.8 1015.8 0.0
29/06:00pm 17.3 15.4 13.0 76 2.4 E 15 19 8 10 1015.8 1015.8 0.0
29/05:30pm 17.1 14.6 12.4 74 2.6 ENE 17 20 9 11 1015.5 1015.5 0.0
29/05:00pm 17.2 14.6 11.9 71 2.9 NE 17 20 9 11 1015.5 1015.5 0.0
29/04:30pm 17.4 14.2 11.9 70 3.0 ENE 20 22 11 12 1015.6 1015.6 0.0
29/04:00pm 17.7 14.5 11.9 69 3.2 ENE 20 24 11 13 1015.5 1015.5 0.0
29/03:30pm 18.1 15.1 12.1 68 3.3 ENE 19 24 10 13 1015.6 1015.6 0.0
29/03:00pm 19.8 17.2 13.7 68 3.5 E 20 26 11 14 1015.7 1015.7 0.0
29/02:30pm 19.2 16.2 12.7 66 3.6 E 20 24 11 13 1016.0 1016.0 0.0
29/02:00pm 18.9 15.9 11.9 64 3.9 ENE 19 24 10 13 1016.2 1016.2 0.0
29/01:30pm 19.4 16.4 12.4 64 3.9 E 20 24 11 13 1016.4 1016.4 0.0
29/11:00am 18.4 15.7 11.7 65 3.7 E 17 20 9 11 1017.4 1017.4 0.0
29/10:30am 18.1 15.5 11.9 67 3.4 E 17 19 9 10 1017.4 1017.4 0.0
29/10:00am 18.0 16.0 12.7 71 3.0 E 15 17 8 9 1017.5 1017.5 0.0
29/09:30am 17.6 16.0 12.7 73 2.7 E 13 15 7 8 1017.4 1017.4 0.0
29/09:00am 16.9 15.8 13.0 78 2.2 E 11 13 6 7 1017.3 1017.3 0.0
29/08:30am 16.8 16.1 11.9 73 2.7 E 7 11 4 6 1017.3 1017.3 0.0
29/08:00am 16.1 17.0 12.8 81 1.8 CALM 0 0 0 0 1017.1 1017.1 0.0
29/07:30am 13.8 13.2 12.2 90 0.9 SW 7 9 4 5 1016.9 1016.9 0.0
29/07:00am 12.5 13.3 12.5 100 0.0 CALM 0 0 0 0 1016.6 1016.6 0.0
29/06:30am 10.9 11.2 10.9 100 0.0 CALM 0 0 0 0 1016.2 1016.2 0.0
29/06:00am 11.2 11.6 11.2 100 0.0 CALM 0 0 0 0 1015.7 1015.7 0.0
29/05:43am 10.7 10.9 10.7 100 0.0 CALM 0 0 0 0 1015.4 1015.4 0.0
29/05:30am 10.8 9.9 10.6 99 0.1 WSW 6 7 3 4 1015.1 1015.0 0.0
29/05:25am 10.9 10.4 10.6 98 0.2 WSW 4 7 2 4 1015.0 1014.9 0.0
29/05:00am 11.6 11.9 11.0 96 0.3 CALM 0 0 0 0 1014.6 1014.5 0.0
29/04:30am 12.6 12.2 11.2 91 0.7 W 4 6 2 3 1014.3 1014.2 0.0
29/04:00am 14.2 13.5 12.1 87 1.1 WSW 7 9 4 5 1014.1 1014.0 0.0
29/03:30am 15.3 13.6 12.4 83 1.6 S 13 17 7 9 1014.1 1014.0 0.0
29/03:00am 15.6 13.6 12.7 83 1.6 S 15 20 8 11 1014.0 1013.9 0.0
29/02:30am 16.0 14.2 13.3 84 1.5 S 15 20 8 11 1013.5 1013.4 0.0
29/02:00am 16.2 13.9 14.2 88 1.1 S 19 26 10 14 1013.2 1013.1 0.0
29/01:30am 12.0 10.9 10.1 88 1.0 W 6 20 3 11 1013.2 1013.1 0.0
29/01:00am 10.6 9.9 8.7 88 0.9 W 2 7 1 4 1012.9 1012.8 0.0
29/12:30am 10.9 10.3 8.8 87 1.0 WNW 2 6 1 3 1013.0 1012.9 0.0
29/12:00am 10.9 9.8 8.5 85 1.2 NNW 4 9 2 5 1012.9 1012.8 0.0
 
Date/Time
EDT
Tmp

°C
App
Tmp
°C
Dew
Point
°C
Rel
Hum
%
Delta-T

°C
Wind Press
QNH
hPa
Press
MSL
hPa
Rain
since
9 am
mm
Dir
 
Spd
km/h
Gust
km/h
Spd
kts
Gust
kts
28/11:30pm 11.7 10.9 8.0 78 1.8 W 2 7 1 4 1012.7 1012.6 0.0
28/11:00pm 12.6 11.0 8.7 77 1.9 NW 7 9 4 5 1012.5 1012.4 0.0
28/10:30pm 13.1 11.5 8.6 74 2.2 NW 7 9 4 5 1012.4 1012.3 0.0
28/10:00pm 14.1 13.3 6.7 61 3.6 CALM 0 6 0 3 1012.3 1012.2 0.0
28/09:30pm 16.8 14.6 6.3 50 5.1 W 7 11 4 6 1012.1 1012.0 0.0
28/09:00pm 17.8 15.4 5.4 44 6.0 W 7 11 4 6 1011.9 1011.8 0.0
28/08:30pm 19.7 16.1 5.0 38 7.2 WSW 13 22 7 12 1011.3 1011.2 0.0
28/08:00pm 20.2 15.9 5.1 37 7.4 W 17 26 9 14 1010.7 1010.6 0.0
28/07:30pm 21.2 15.8 4.7 34 8.1 W 22 35 12 19 1009.9 1009.8 0.0
28/07:00pm 22.2 16.8 4.7 32 8.6 W 22 39 12 21 1009.3 1009.2 0.0
28/06:43pm 22.9 17.9 4.4 30 9.1 WSW 20 32 11 17 1008.9 1008.8 0.0
28/06:30pm 23.5 17.7 4.5 29 9.4 WSW 24 35 13 19 1008.5 1008.4 0.0
28/06:28pm 23.5 17.7 4.5 29 9.4 WSW 24 35 13 19 1008.5 1008.4 0.0
28/06:00pm 24.8 19.4 4.5 27 10.2 WSW 22 35 12 19 1007.5 1007.4 0.0
28/05:30pm 25.3 18.5 3.3 24 10.8 WSW 28 43 15 23 1006.6 1006.5 0.0
28/05:19pm 25.7 18.5 3.0 23 11.1 WSW 30 48 16 26 1006.2 1006.1 0.0
28/05:00pm 26.6 20.3 3.8 23 11.4 WSW 26 43 14 23 1005.7 1005.6 0.0
28/04:30pm 27.6 22.5 4.0 22 11.9 WSW 20 30 11 16 1005.2 1005.1 0.0
28/04:00pm 27.6 21.7 4.0 22 11.9 WSW 24 37 13 20 1004.7 1004.6 0.0
28/03:30pm 28.1 22.5 3.7 21 12.3 WSW 22 37 12 20 1004.7 1004.6 0.0
28/03:00pm 28.0 22.4 3.7 21 12.2 WSW 22 33 12 18 1004.8 1004.7 0.0
28/02:30pm 28.6 24.5 4.2 21 12.4 W 15 28 8 15 1004.9 1004.8 0.0
28/02:00pm 27.7 22.0 4.7 23 11.8 WSW 24 43 13 23 1005.2 1005.1 0.0
28/01:30pm 26.8 23.0 4.0 23 11.4 NW 13 19 7 10 1005.5 1005.4 0.0
28/01:00pm 25.9 22.3 4.9 26 10.7 WNW 13 26 7 14 1005.7 1005.6 0.0
28/12:30pm 25.1 21.2 7.3 32 9.4 N 17 24 9 13 1006.2 1006.1 0.0
28/12:00pm 23.9 19.7 5.8 31 9.2 N 17 28 9 15 1006.7 1006.6 0.0
28/11:30am 22.8 18.2 5.7 33 8.6 NNW 19 26 10 14 1007.6 1007.5 0.0
28/11:00am 21.6 18.4 6.7 38 7.6 NNW 13 20 7 11 1008.0 1007.9 0.0
28/10:30am 20.0 16.0 4.9 37 7.3 NNW 15 22 8 12 1008.3 1008.2 0.0
28/10:00am 19.8 15.7 6.2 41 6.8 NW 17 28 9 15 1008.8 1008.7 0.0
28/09:30am 19.8 15.7 6.2 41 6.8 NW 17 28 9 15 1009.0 1008.9 0.0
28/09:00am 18.8 14.2 5.6 42 6.5 NW 19 32 10 17 1008.7 1008.6 0.0
28/08:30am 17.2 13.2 6.7 50 5.2 NW 17 26 9 14 1008.9 1008.8 0.0
28/08:00am 13.7 12.9 10.9 83 1.5 S 6 9 3 5 1009.0 1008.9 0.0
28/07:30am 11.5 10.6 11.5 100 0.0 SSW 7 9 4 5 1009.1 1009.0 0.0
28/07:00am 10.9 11.2 10.9 100 0.0 CALM 0 0 0 0 1009.1 1009.0 0.0
28/06:30am 9.2 7.7 9.2 100 0.0 W 7 11 4 6 1009.1 1009.0 0.0
28/06:08am 9.2 7.7 9.2 100 0.0 SSW 7 9 4 5 1009.0 1008.9 0.0
28/06:00am 9.4 8.0 9.4 100 0.0 SW 7 11 4 6 1008.9 1008.8 0.0

Latest Capital City Observations: Canberra | Sydney | Melbourne | Brisbane | Adelaide | Perth | Hobart | Darwin

Other Formats:

Comma delimited format used in spreadsheet applications
http://www.bom.gov.au/fwo/IDN60903/IDN60903.95937.axf

JavaScript Object Notation format (JSON) in row-major order
http://www.bom.gov.au/fwo/IDN60903/IDN60903.95937.json